Time;durP1;ratioP1;P1;durP2;ratioP2;P2;SDS_P1;SDS_P2;PMS_P1;PMS_P2;Temp;Humidity;BMP_temperature;BMP_pressure;BME280_temperature;BME280_humidity;BME280_pressure;Samples;Min_cycle;Max_cycle;Signal;HPM_P1;HPM_P2
2023/05/23 00:02:07;;;;;;;5.80;4.10;;;;;;;15.35;58.13;99417.12;107519;1254;72683;-37
2023/05/23 00:04:35;;;;;;;6.50;4.10;;;;;;;15.32;58.14;99418.45;107570;1254;60431;-37
2023/05/23 00:07:03;;;;;;;6.30;3.70;;;;;;;15.29;58.42;99415.56;107487;1254;60334;-37
2023/05/23 00:09:31;;;;;;;6.30;4.00;;;;;;;15.27;58.38;99415.40;107471;1254;72635;-37
2023/05/23 00:11:59;;;;;;;7.80;4.00;;;;;;;15.26;58.48;99412.27;107492;1254;67925;-37
2023/05/23 00:14:30;;;;;;;6.40;4.10;;;;;;;15.23;58.60;99409.08;107595;1256;71492;-37
2023/05/23 00:16:59;;;;;;;6.90;3.20;;;;;;;15.21;58.69;99405.48;107630;1254;60457;-37
2023/05/23 00:19:27;;;;;;;6.50;3.70;;;;;;;15.24;58.86;99405.09;107654;1254;60376;-37
2023/05/23 00:21:55;;;;;;;5.70;3.70;;;;;;;15.28;58.79;99403.15;107697;1254;73846;-37
2023/05/23 00:24:23;;;;;;;5.90;3.90;;;;;;;15.29;58.72;99399.33;107624;1253;67895;-37
2023/05/23 00:26:51;;;;;;;5.60;3.50;;;;;;;15.31;58.53;99397.14;107639;1254;72523;-37
2023/05/23 00:29:19;;;;;;;5.10;3.60;;;;;;;15.32;58.37;99398.48;107673;1254;60382;-37
2023/05/23 00:31:47;;;;;;;6.10;3.50;;;;;;;15.34;58.31;99397.38;107560;1254;60209;-37
2023/05/23 00:34:16;;;;;;;4.40;3.50;;;;;;;15.34;58.13;99391.05;107669;1254;73799;-37
2023/05/23 00:36:46;;;;;;;5.40;3.70;;;;;;;15.32;58.15;99394.48;107701;1253;66363;-37
2023/05/23 00:39:18;;;;;;;3.40;3.00;;;;;;;15.30;58.16;99392.62;107650;1253;72714;-37
2023/05/23 00:41:48;;;;;;;4.50;3.40;;;;;;;15.30;58.40;99390.73;107645;1256;60428;-37
2023/05/23 00:44:20;;;;;;;3.50;3.20;;;;;;;15.29;58.49;99392.30;107639;1253;60402;-37
2023/05/23 00:46:51;;;;;;;4.90;3.20;;;;;;;15.27;58.90;99389.73;107687;1253;73830;-37
2023/05/23 00:49:19;;;;;;;6.50;3.40;;;;;;;15.26;59.02;99389.49;107515;1253;67207;-37
2023/05/23 00:51:48;;;;;;;4.80;3.50;;;;;;;15.27;59.30;99388.56;107572;1254;72938;-37
2023/05/23 00:54:28;;;;;;;5.10;4.00;;;;;;;15.28;59.23;99387.46;107467;1253;60504;-37
2023/05/23 00:56:56;;;;;;;6.60;4.10;;;;;;;15.24;58.36;99383.64;107692;1251;60489;-38
2023/05/23 00:59:24;;;;;;;6.70;4.50;;;;;;;15.16;58.12;99378.88;107719;1251;72574;-37
2023/05/23 01:01:53;;;;;;;6.30;3.60;;;;;;;15.09;57.96;99381.05;107659;1251;67953;-37
2023/05/23 01:04:25;;;;;;;6.70;4.30;;;;;;;15.03;58.07;99378.47;107562;1251;71426;-37
2023/05/23 01:06:54;;;;;;;5.40;4.10;;;;;;;14.97;58.17;99374.02;107592;1251;60309;-37
2023/05/23 01:09:22;;;;;;;7.10;4.20;;;;;;;14.90;58.16;99371.44;107751;1251;60468;-37
2023/05/23 01:12:00;;;;;;;6.90;4.30;;;;;;;14.85;58.47;99373.46;107662;1255;73815;-37
2023/05/23 01:14:43;;;;;;;6.20;4.30;;;;;;;14.80;58.69;99379.14;107510;1254;67599;-37
2023/05/23 01:17:19;;;;;;;7.90;4.40;;;;;;;14.75;58.94;99377.80;107505;1254;72695;-37
2023/05/23 01:20:03;;;;;;;6.70;3.90;;;;;;;14.71;59.13;99380.29;107657;1253;60943;-37
2023/05/23 01:22:40;;;;;;;4.90;4.40;;;;;;;14.66;59.31;99378.33;107500;1253;60331;-38
2023/05/23 01:25:18;;;;;;;6.70;4.60;;;;;;;14.60;59.39;99378.94;107544;1254;73881;-37
2023/05/23 01:27:52;;;;;;;6.00;4.40;;;;;;;14.54;59.46;99379.53;107473;1253;67585;-37
2023/05/23 01:30:20;;;;;;;7.00;4.30;;;;;;;14.47;59.36;99379.74;107534;1253;72666;-37
2023/05/23 01:32:47;;;;;;;5.90;4.40;;;;;;;14.41;59.22;99383.61;107386;1254;60406;-37
2023/05/23 01:35:26;;;;;;;8.30;5.00;;;;;;;14.33;59.29;99383.80;107354;1259;60200;-37
2023/05/23 01:37:54;;;;;;;7.80;5.20;;;;;;;14.26;59.37;99383.54;107714;1253;73899;-37
2023/05/23 01:40:23;;;;;;;7.20;4.90;;;;;;;14.19;59.42;99382.80;107651;1257;66614;-37
2023/05/23 01:42:51;;;;;;;7.30;4.60;;;;;;;14.14;59.46;99381.21;107686;1253;71672;-37
2023/05/23 01:45:20;;;;;;;5.00;3.50;;;;;;;14.02;59.56;99374.61;107674;1253;60431;-37
2023/05/23 01:47:49;;;;;;;7.80;4.80;;;;;;;13.99;59.53;99383.79;107685;1254;60509;-37
2023/05/23 01:50:17;;;;;;;9.40;5.10;;;;;;;13.89;59.66;99382.16;107711;1252;72589;-37
2023/05/23 01:52:48;;;;;;;6.40;4.30;;;;;;;13.82;59.81;99381.74;107468;1254;67403;-37
2023/05/23 01:55:17;;;;;;;6.40;4.30;;;;;;;13.76;59.98;99378.82;107315;1254;72685;-37
2023/05/23 01:57:48;;;;;;;;;;;;;;;13.76;60.07;99377.64;107511;1253;62817;-37
2023/05/23 02:00:17;;;;;;;7.50;4.70;;;;;;;13.71;59.92;99375.60;107511;1257;60461;-37
2023/05/23 02:02:46;;;;;;;9.90;5.00;;;;;;;13.68;59.95;99372.55;107732;1253;73892;-37
2023/05/23 02:05:16;;;;;;;7.00;5.10;;;;;;;13.69;60.03;99372.55;107617;1254;66320;-37
2023/05/23 02:07:44;;;;;;;7.10;4.90;;;;;;;13.69;60.13;99370.38;107619;1253;71387;-37
2023/05/23 02:10:12;;;;;;;7.60;4.50;;;;;;;13.67;60.07;99368.10;107547;1253;60321;-37
2023/05/23 02:12:40;;;;;;;9.90;4.90;;;;;;;13.67;60.10;99369.66;107475;1251;60511;-37
2023/05/23 02:15:09;;;;;;;6.90;4.90;;;;;;;13.68;60.56;99368.42;107508;1251;72612;-37
2023/05/23 02:17:37;;;;;;;6.00;4.80;;;;;;;13.68;60.70;99368.11;107526;1251;67592;-37
2023/05/23 02:20:06;;;;;;;7.40;4.70;;;;;;;13.67;60.86;99368.34;107692;1251;72657;-37
2023/05/23 02:22:34;;;;;;;11.60;5.00;;;;;;;13.66;61.05;99366.52;107684;1252;60183;-37
2023/05/23 02:25:03;;;;;;;7.10;4.80;;;;;;;13.64;61.27;99367.55;107446;1251;60370;-36
2023/05/23 02:27:32;;;;;;;8.50;4.90;;;;;;;13.62;61.27;99365.02;107550;1251;72612;-37
2023/05/23 02:29:59;;;;;;;7.00;5.10;;;;;;;13.57;61.29;99360.95;107673;1251;67551;-37
2023/05/23 02:32:28;;;;;;;7.10;5.10;;;;;;;13.54;61.35;99363.27;107759;1256;71392;-37
2023/05/23 02:34:57;;;;;;;7.80;4.80;;;;;;;13.51;61.55;99360.67;107688;1253;60449;-37
2023/05/23 02:37:24;;;;;;;8.60;4.50;;;;;;;13.50;61.59;99360.84;107674;1251;60301;-37
2023/05/23 02:39:52;;;;;;;6.80;5.00;;;;;;;13.54;61.65;99353.84;107701;1251;71564;-37
2023/05/23 02:42:21;;;;;;;8.10;4.60;;;;;;;13.60;61.78;99355.77;107713;1254;66657;-37
2023/05/23 02:44:49;;;;;;;8.90;4.60;;;;;;;13.63;61.66;99353.98;107563;1256;72662;-37
2023/05/23 02:47:17;;;;;;;7.60;4.50;;;;;;;13.64;61.43;99352.12;107616;1251;60444;-37
2023/05/23 02:49:45;;;;;;;7.80;5.10;;;;;;;13.66;61.33;99350.20;107513;1251;60905;-37
2023/05/23 02:52:13;;;;;;;6.60;4.50;;;;;;;13.68;61.15;99353.48;107714;1251;72581;-37
2023/05/23 02:54:41;;;;;;;8.90;4.80;;;;;;;13.67;61.02;99356.42;107657;1251;66277;-36
2023/05/23 02:57:09;;;;;;;6.50;5.00;;;;;;;13.65;60.94;99356.95;107574;1251;72703;-37
2023/05/23 02:59:38;;;;;;;6.30;4.70;;;;;;;13.57;60.82;99357.45;107582;1254;60417;-37
2023/05/23 03:02:06;;;;;;;6.20;4.90;;;;;;;13.51;60.97;99354.23;107734;1251;60380;-37
2023/05/23 03:04:36;;;;;;;6.60;5.10;;;;;;;13.50;60.92;99355.46;107710;1251;72589;-37
2023/05/23 03:07:05;;;;;;;;;;;;;;;13.48;60.94;99355.45;107652;1251;67899;-37
2023/05/23 03:09:43;;;;;;;8.20;5.00;;;;;;;13.40;61.18;99354.45;107743;1251;71367;-37
2023/05/23 03:12:11;;;;;;;6.50;5.00;;;;;;;13.35;61.31;99350.05;107703;1251;60412;-37
2023/05/23 03:14:39;;;;;;;7.40;4.90;;;;;;;13.37;61.22;99352.33;107643;1251;59773;-38
2023/05/23 03:17:07;;;;;;;6.30;5.20;;;;;;;13.36;61.06;99350.23;107704;1251;72565;-38
2023/05/23 03:19:35;;;;;;;7.50;5.30;;;;;;;13.35;61.23;99350.54;107564;1251;67686;-37
2023/05/23 03:22:03;;;;;;;6.70;5.00;;;;;;;13.38;61.28;99348.91;107800;1255;72742;-37
2023/05/23 03:24:31;;;;;;;6.50;4.80;;;;;;;13.47;61.22;99348.20;107689;1251;60414;-38
2023/05/23 03:27:00;;;;;;;5.70;4.60;;;;;;;13.53;61.19;99346.38;107713;1251;60373;-38
2023/05/23 03:29:28;;;;;;;8.20;5.00;;;;;;;13.56;61.08;99348.73;107655;1251;74152;-38
2023/05/23 03:31:57;;;;;;;6.30;4.90;;;;;;;13.58;61.10;99344.93;107619;1256;66288;-37
2023/05/23 03:34:26;;;;;;;6.60;5.20;;;;;;;13.65;61.14;99344.80;107520;1254;71405;-38
2023/05/23 03:36:54;;;;;;;7.90;5.30;;;;;;;13.71;61.00;99344.77;107660;1251;60405;-37
2023/05/23 03:39:23;;;;;;;7.50;4.90;;;;;;;13.74;61.01;99345.57;107717;1255;60428;-37
2023/05/23 03:41:51;;;;;;;7.80;5.00;;;;;;;13.75;61.17;99343.23;107593;1251;73917;-37
2023/05/23 03:44:19;;;;;;;6.60;5.00;;;;;;;13.77;61.20;99347.62;107707;1251;67646;-38
2023/05/23 03:46:47;;;;;;;8.50;4.80;;;;;;;13.79;61.24;99345.20;107489;1257;71146;-38
2023/05/23 03:49:15;;;;;;;9.40;5.20;;;;;;;13.82;61.25;99342.59;107453;1251;59334;-37
2023/05/23 03:51:43;;;;;;;8.00;4.80;;;;;;;13.85;61.27;99347.42;107739;1251;60032;-37
2023/05/23 03:54:13;;;;;;;6.70;4.30;;;;;;;13.89;61.64;99341.92;107572;1256;73825;-38
2023/05/23 03:56:41;;;;;;;5.40;4.50;;;;;;;13.97;61.68;99344.07;107684;1251;67850;-38
2023/05/23 03:59:09;;;;;;;5.60;4.60;;;;;;;14.04;61.67;99342.70;107736;1251;72658;-38
2023/05/23 04:01:38;;;;;;;6.40;4.50;;;;;;;14.12;61.66;99342.80;107641;1251;60389;-38
2023/05/23 04:04:06;;;;;;;7.30;5.10;;;;;;;14.18;61.60;99344.39;107732;1251;60587;-38
2023/05/23 04:06:37;;;;;;;;;;;;;;;14.25;61.49;99348.16;107665;1251;72617;-38
2023/05/23 04:09:06;;;;;;;6.70;4.70;;;;;;;14.26;61.58;99344.48;107860;1256;66230;-38
2023/05/23 04:11:37;;;;;;;6.90;5.00;;;;;;;14.29;61.57;99347.38;107675;1251;72674;-38
2023/05/23 04:14:07;;;;;;;7.40;4.60;;;;;;;14.40;61.53;99349.24;107711;1251;60373;-38
2023/05/23 04:16:36;;;;;;;10.10;4.90;;;;;;;14.49;61.40;99362.61;107708;1251;60351;-38
2023/05/23 04:19:05;;;;;;;4.40;3.50;;;;;;;14.56;61.76;99352.18;107721;1256;73976;-38
2023/05/23 04:21:34;;;;;;;7.40;4.20;;;;;;;14.62;61.70;99353.60;107673;1251;66343;-38
2023/05/23 04:24:07;;;;;;;7.30;4.40;;;;;;;14.72;61.90;99356.65;107674;1253;73106;-38
2023/05/23 04:26:38;;;;;;;5.80;4.30;;;;;;;14.83;61.87;99353.26;107709;1251;60459;-38
2023/05/23 04:29:06;;;;;;;5.30;4.40;;;;;;;14.94;61.87;99362.46;107676;1251;60377;-37
2023/05/23 04:31:35;;;;;;;7.90;4.50;;;;;;;15.04;61.90;99359.36;107646;1251;72619;-37
2023/05/23 04:34:03;;;;;;;9.80;4.90;;;;;;;15.16;61.64;99359.20;107734;1251;66604;-37
2023/05/23 04:36:36;;;;;;;7.40;4.70;;;;;;;15.28;61.39;99351.48;107657;1251;72694;-38
2023/05/23 04:39:05;;;;;;;7.70;4.50;;;;;;;15.40;60.96;99350.31;107575;1253;60446;-38
2023/05/23 04:41:38;;;;;;;7.90;4.60;;;;;;;15.48;60.60;99351.40;107720;1251;58721;-38
2023/05/23 04:44:32;;;;;;;8.60;5.00;;;;;;;15.57;60.42;99351.73;107415;1251;72654;-38
2023/05/23 04:47:14;;;;;;;9.10;4.60;;;;;;;15.66;60.55;99354.14;107717;1251;66665;-38
2023/05/23 04:50:01;;;;;;;6.60;4.20;;;;;;;15.75;60.36;99356.84;107650;1251;72633;-38
2023/05/23 04:52:32;;;;;;;6.30;4.60;;;;;;;15.83;60.22;99359.33;107607;1254;60041;-38
2023/05/23 04:55:01;;;;;;;4.90;3.80;;;;;;;15.93;60.16;99360.56;107546;1251;60302;-38
2023/05/23 04:57:29;;;;;;;6.00;3.70;;;;;;;16.03;59.82;99360.83;107663;1251;73825;-38
2023/05/23 04:59:57;;;;;;;5.80;4.30;;;;;;;16.18;59.52;99356.41;107462;1251;67981;-38
2023/05/23 05:02:26;;;;;;;4.90;3.80;;;;;;;16.29;59.43;99353.79;107673;1253;71385;-38
2023/05/23 05:04:54;;;;;;;5.00;4.10;;;;;;;16.37;59.13;99347.27;107675;1253;60466;-38
2023/05/23 05:07:22;;;;;;;6.30;4.10;;;;;;;16.52;58.85;99354.99;107645;1254;60286;-38
2023/05/23 05:09:50;;;;;;;6.10;4.10;;;;;;;16.63;58.81;99356.06;107673;1251;73819;-38
2023/05/23 05:12:18;;;;;;;8.10;4.40;;;;;;;16.74;58.45;99354.75;107534;1251;66263;-38
2023/05/23 05:14:45;;;;;;;10.70;4.30;;;;;;;16.84;57.89;99355.64;107670;1251;72652;-38
2023/05/23 05:17:13;;;;;;;5.40;4.20;;;;;;;16.94;58.00;99356.73;107625;1251;60405;-38
2023/05/23 05:19:51;;;;;;;5.00;4.40;;;;;;;17.05;57.95;99360.48;107708;1251;60287;-38
2023/05/23 05:22:19;;;;;;;6.10;4.30;;;;;;;17.14;57.71;99357.98;107496;1251;73984;-38
2023/05/23 05:24:48;;;;;;;4.90;4.10;;;;;;;17.23;57.56;99359.73;107791;1251;66630;-38
2023/05/23 05:27:16;;;;;;;6.10;3.80;;;;;;;17.30;56.91;99357.78;107606;1251;191718;-38
2023/05/23 05:31:21;;;;;;;6.30;3.90;;;;;;;17.48;56.71;99358.65;104107;1291;600224;-38
2023/05/23 05:33:49;;;;;;;7.60;4.70;;;;;;;17.55;56.69;99360.64;106633;1271;59242;-38
2023/05/23 05:36:18;;;;;;;6.10;4.30;;;;;;;17.65;56.49;99352.96;106697;1266;59271;-38
2023/05/23 05:38:46;;;;;;;6.20;4.60;;;;;;;17.74;56.64;99356.80;106626;1266;72352;-38
2023/05/23 05:41:16;;;;;;;5.10;4.20;;;;;;;17.83;56.12;99355.83;106621;1266;68028;-37
2023/05/23 05:43:47;;;;;;;5.00;4.00;;;;;;;17.92;56.24;99354.95;106632;1267;71455;-38
2023/05/23 05:46:15;;;;;;;6.60;4.20;;;;;;;18.00;55.98;99352.98;106678;1266;60351;-37
2023/05/23 05:48:45;;;;;;;5.00;4.10;;;;;;;18.11;55.72;99354.27;106772;1264;59234;-38
2023/05/23 05:51:13;;;;;;;5.50;4.40;;;;;;;18.21;55.34;99354.21;106783;1265;70668;-37
2023/05/23 05:53:41;;;;;;;6.80;4.00;;;;;;;18.30;54.55;99353.80;106737;1264;67571;-38
2023/05/23 05:56:09;;;;;;;5.00;3.90;;;;;;;18.37;54.58;99352.69;106764;1266;71753;-38
2023/05/23 05:58:38;;;;;;;5.50;4.30;;;;;;;18.46;54.57;99351.64;106604;1263;59683;-38
2023/05/23 06:01:08;;;;;;;4.40;4.00;;;;;;;18.52;54.42;99349.05;106619;1266;59478;-38
2023/05/23 06:03:36;;;;;;;6.90;4.10;;;;;;;18.58;53.74;99347.18;106812;1264;73046;-38
2023/05/23 06:06:05;;;;;;;5.00;4.10;;;;;;;18.63;53.52;99344.37;106825;1264;67892;-38
2023/05/23 06:08:33;;;;;;;7.40;4.20;;;;;;;18.67;53.37;99343.75;106744;1266;72693;-38
2023/05/23 06:11:01;;;;;;;6.20;4.30;;;;;;;18.73;53.49;99345.73;106738;1266;60061;-37
2023/05/23 06:13:30;;;;;;;9.00;4.70;;;;;;;18.78;53.30;99343.45;106728;1268;59259;-38
2023/05/23 06:15:57;;;;;;;5.60;3.90;;;;;;;18.86;53.15;99342.70;106657;1264;71783;-38
2023/05/23 06:18:25;;;;;;;6.60;4.60;;;;;;;18.95;53.27;99341.78;106792;1266;67498;-38
2023/05/23 06:20:53;;;;;;;6.00;3.90;;;;;;;19.04;52.98;99335.67;106650;1266;71453;-38
2023/05/23 06:23:21;;;;;;;5.30;4.30;;;;;;;19.13;52.88;99334.59;106717;1264;59475;-38
2023/05/23 06:25:50;;;;;;;7.40;4.00;;;;;;;19.20;52.37;99332.20;107263;1262;59672;-37
2023/05/23 06:28:17;;;;;;;7.00;4.20;;;;;;;19.24;51.49;99331.81;107295;1256;73782;-37
2023/05/23 06:30:45;;;;;;;5.80;3.90;;;;;;;19.27;51.85;99329.72;107332;1257;66973;-37
2023/05/23 06:33:13;;;;;;;5.30;4.50;;;;;;;19.38;51.54;99330.79;107271;1256;71524;-37
2023/05/23 06:35:42;;;;;;;5.70;4.10;;;;;;;19.52;51.85;99329.87;107297;1256;60104;-38
2023/05/23 06:38:10;;;;;;;6.00;4.00;;;;;;;19.66;51.09;99322.08;107299;1256;59567;-37
2023/05/23 06:40:40;;;;;;;6.80;3.90;;;;;;;19.81;51.31;99315.98;107289;1256;71783;-38
2023/05/23 06:43:08;;;;;;;5.80;3.80;;;;;;;19.95;50.81;99313.98;107252;1256;67392;-38
2023/05/23 06:45:59;;;;;;;8.10;4.30;;;;;;;20.12;50.21;99313.55;107177;1259;72683;-38
2023/05/23 06:48:28;;;;;;;5.00;4.30;;;;;;;20.22;50.35;99315.40;107155;1256;60102;-38
2023/05/23 06:50:55;;;;;;;7.70;4.60;;;;;;;20.34;50.23;99311.23;107267;1256;60066;-38
2023/05/23 06:53:24;;;;;;;7.60;4.20;;;;;;;20.46;49.68;99310.02;107601;1253;73044;-38
2023/05/23 06:55:52;;;;;;;5.90;4.40;;;;;;;20.54;49.13;99306.02;107578;1252;68111;-38
2023/05/23 06:58:21;;;;;;;5.10;4.30;;;;;;;20.63;48.81;99305.96;107604;1253;71417;-38
2023/05/23 07:00:49;;;;;;;6.20;4.20;;;;;;;20.75;48.62;99307.95;107585;1256;60067;-38
2023/05/23 07:03:29;;;;;;;6.20;4.40;;;;;;;20.89;48.75;99305.02;107425;1253;60057;-38
2023/05/23 07:06:00;;;;;;;5.20;3.90;;;;;;;21.03;48.22;99301.54;107406;1258;71784;-38
2023/05/23 07:08:28;;;;;;;7.00;4.30;;;;;;;21.16;47.77;99298.56;107645;1253;68011;-38
2023/05/23 07:11:00;;;;;;;7.90;4.60;;;;;;;21.29;47.81;99294.45;107537;1253;71313;-37
2023/05/23 07:13:34;;;;;;;5.30;4.10;;;;;;;21.40;46.83;99299.46;107540;1253;59710;-38
2023/05/23 07:16:03;;;;;;;5.10;4.10;;;;;;;21.46;46.45;99292.35;107506;1253;59596;-38
2023/05/23 07:18:31;;;;;;;9.00;4.60;;;;;;;21.56;46.64;99291.79;107419;1252;73067;-38
2023/05/23 07:21:02;;;;;;;6.40;4.00;;;;;;;21.67;45.99;99287.46;107617;1252;66617;-38
2023/05/23 07:23:33;;;;;;;6.80;4.20;;;;;;;21.77;45.89;99289.39;107431;1255;71371;-38
2023/05/23 07:26:01;;;;;;;5.60;4.20;;;;;;;21.90;45.98;99288.64;107537;1253;59648;-38
2023/05/23 07:28:39;;;;;;;5.10;4.20;;;;;;;22.01;45.20;99283.67;107548;1253;59475;-38
2023/05/23 07:31:08;;;;;;;7.40;3.70;;;;;;;22.12;44.62;99282.77;107670;1254;71835;-38
2023/05/23 07:33:37;;;;;;;;;;;;;;;22.24;44.37;99278.30;107447;1253;67079;-38
2023/05/23 07:36:06;;;;;;;7.00;4.40;;;;;;;22.29;44.11;99275.86;107655;1257;71405;-38
2023/05/23 07:38:33;;;;;;;6.10;3.70;;;;;;;22.35;43.66;99275.43;107595;1253;59616;-38
2023/05/23 07:41:01;;;;;;;5.80;3.90;;;;;;;22.48;43.51;99274.48;107663;1253;59522;-38
2023/05/23 07:43:39;;;;;;;6.20;3.70;;;;;;;22.60;41.34;99275.92;107623;1253;71885;-38
2023/05/23 07:46:07;;;;;;;5.30;3.60;;;;;;;22.67;40.94;99280.21;107665;1253;66463;-38
2023/05/23 07:48:36;;;;;;;5.20;3.50;;;;;;;22.75;41.11;99283.36;107690;1253;72686;-38
2023/05/23 07:51:04;;;;;;;7.20;3.60;;;;;;;22.82;40.99;99276.49;107440;1253;60574;-38
2023/05/23 07:53:32;;;;;;;4.60;3.30;;;;;;;22.87;40.40;99275.07;107621;1258;59222;-37
2023/05/23 07:56:02;;;;;;;4.10;3.00;;;;;;;22.93;39.26;99273.01;107588;1253;73051;-38
2023/05/23 07:58:33;;;;;;;6.30;3.70;;;;;;;22.95;39.57;99272.61;107567;1253;66763;-38
2023/05/23 08:01:02;;;;;;;4.90;3.40;;;;;;;22.96;38.99;99271.31;107567;1253;72680;-38
2023/05/23 08:03:49;;;;;;;7.10;3.60;;;;;;;22.90;39.89;99270.39;107559;1253;59599;-38
2023/05/23 08:06:21;;;;;;;6.80;3.20;;;;;;;22.84;40.49;99267.61;107587;1253;59563;-38
2023/05/23 08:08:50;;;;;;;4.90;2.90;;;;;;;22.82;39.92;99267.58;107613;1256;73121;-38
2023/05/23 08:11:17;;;;;;;3.80;2.90;;;;;;;22.83;39.92;99267.33;107574;1252;67627;-38
2023/05/23 08:13:49;;;;;;;4.70;3.30;;;;;;;22.82;39.67;99266.02;107571;1253;71041;-38
2023/05/23 08:16:36;;;;;;;4.70;3.00;;;;;;;22.79;39.04;99262.97;107512;1253;59717;-38
2023/05/23 08:19:11;;;;;;;4.00;3.20;;;;;;;22.76;38.78;99263.12;107523;1253;59663;-38
2023/05/23 08:21:40;;;;;;;6.10;3.40;;;;;;;22.78;38.99;99260.20;107448;1254;72164;-38
2023/05/23 08:24:08;;;;;;;9.00;3.50;;;;;;;22.83;38.90;99261.33;107533;1253;68191;-37
2023/05/23 08:26:36;;;;;;;5.00;3.50;;;;;;;22.87;37.59;99256.98;107552;1256;72827;-39
2023/05/23 08:29:05;;;;;;;4.70;3.10;;;;;;;22.97;37.24;99257.79;107547;1253;59350;-38
2023/05/23 08:31:33;;;;;;;3.70;3.20;;;;;;;23.11;37.78;99260.56;107579;1253;59556;-38
2023/05/23 08:34:04;;;;;;;5.80;3.20;;;;;;;23.24;36.86;99254.89;107596;1253;71774;-38
2023/05/23 08:36:35;;;;;;;3.70;2.80;;;;;;;23.38;36.76;99253.22;107423;1253;66607;-38
2023/05/23 08:39:03;;;;;;;5.80;3.00;;;;;;;23.52;37.47;99250.22;107480;1256;72747;-38
2023/05/23 08:41:35;;;;;;;3.60;2.90;;;;;;;23.67;35.86;99243.36;107609;1253;59669;-38
2023/05/23 08:44:07;;;;;;;5.60;3.20;;;;;;;23.74;35.63;99248.86;107498;1253;59488;-38
2023/05/23 08:46:43;;;;;;;4.10;3.00;;;;;;;23.73;35.56;99235.07;107614;1253;75191;-38
2023/05/23 08:49:13;;;;;;;6.40;3.40;;;;;;;23.84;36.15;99239.65;107405;1258;67526;-38
2023/05/23 08:51:41;;;;;;;5.50;3.30;;;;;;;23.95;36.18;99236.70;107544;1253;73282;-38
2023/05/23 08:54:13;;;;;;;5.40;3.10;;;;;;;24.10;36.72;99233.23;107577;1253;59741;-38
2023/05/23 08:56:42;;;;;;;5.90;3.50;;;;;;;24.26;35.74;99225.42;107406;1253;59295;-38
2023/05/23 08:59:38;;;;;;;4.90;3.40;;;;;;;24.35;33.01;99217.45;107395;1253;73088;-38
2023/05/23 09:02:07;;;;;;;5.80;3.20;;;;;;;24.29;30.83;99216.85;107581;1259;66272;-38
2023/05/23 09:04:36;;;;;;;5.60;3.30;;;;;;;24.26;32.64;99215.91;107618;1253;71454;-38
2023/05/23 09:07:11;;;;;;;5.80;3.30;;;;;;;24.23;32.55;99199.17;107530;1253;60516;-38
2023/05/23 09:09:39;;;;;;;6.10;2.80;;;;;;;24.46;31.83;99216.13;107409;1253;59487;-38
2023/05/23 09:12:09;;;;;;;6.50;3.10;;;;;;;24.57;33.80;99218.83;107584;1253;71863;-38
2023/05/23 09:14:37;;;;;;;4.40;3.20;;;;;;;24.58;34.08;99219.88;107585;1255;66288;-38
2023/05/23 09:17:07;;;;;;;4.30;3.20;;;;;;;24.58;34.21;99216.05;107591;1253;71401;-38
2023/05/23 09:19:39;;;;;;;4.10;2.70;;;;;;;24.65;34.08;99219.10;107557;1253;60183;-38
2023/05/23 09:22:24;;;;;;;5.70;3.00;;;;;;;24.74;33.43;99214.22;107475;1253;59599;-38
2023/05/23 09:25:00;;;;;;;5.90;3.00;;;;;;;24.80;33.84;99211.86;107391;1253;73052;-38
2023/05/23 09:27:29;;;;;;;4.80;2.90;;;;;;;24.87;34.37;99211.79;107337;1259;67585;-38
2023/05/23 09:29:58;;;;;;;3.70;2.60;;;;;;;24.99;32.54;99201.90;107575;1253;71395;-38
2023/05/23 09:32:26;;;;;;;6.30;2.70;;;;;;;24.98;32.14;99202.18;107426;1253;59624;-38
2023/05/23 09:34:56;;;;;;;5.80;2.70;;;;;;;24.88;33.05;99201.73;107552;1253;60479;-38
2023/05/23 09:37:46;;;;;;;5.80;3.30;;;;;;;24.81;33.61;99200.80;107398;1253;73061;-38
2023/05/23 09:40:14;;;;;;;3.90;2.70;;;;;;;24.82;33.30;99201.88;107424;1253;66488;-38
2023/05/23 09:42:53;;;;;;;5.60;2.70;;;;;;;24.79;33.44;99201.23;107607;1253;72516;-38
2023/05/23 09:45:28;;;;;;;4.50;3.00;;;;;;;24.73;33.91;99199.46;107512;1254;60429;-38
2023/05/23 09:47:56;;;;;;;4.60;2.80;;;;;;;24.62;33.15;99198.94;107393;1257;60579;-38
2023/05/23 09:50:29;;;;;;;5.00;2.80;;;;;;;24.46;33.16;99195.52;107611;1258;72633;-38
2023/05/23 09:52:59;;;;;;;5.80;3.30;;;;;;;24.27;33.06;99197.69;107578;1257;66823;-38
2023/05/23 09:55:26;;;;;;;7.80;3.00;;;;;;;24.09;33.75;99193.85;107627;1253;72967;-38
2023/05/23 09:57:57;;;;;;;3.20;2.80;;;;;;;23.99;34.39;99192.65;107519;1257;60273;-38
2023/05/23 10:00:25;;;;;;;4.40;2.70;;;;;;;23.96;34.15;99192.44;107522;1254;59695;-38
2023/05/23 10:03:12;;;;;;;4.60;2.60;;;;;;;23.96;34.18;99189.83;107454;1254;73886;-38
2023/05/23 10:05:44;;;;;;;4.30;2.50;;;;;;;24.05;35.16;99194.89;107544;1255;66529;-38
2023/05/23 10:08:39;;;;;;;4.80;3.00;;;;;;;24.18;35.05;99191.36;107566;1257;72703;-38
2023/05/23 10:11:13;;;;;;;4.80;2.50;;;;;;;24.42;35.42;99183.91;107567;1258;60422;-38
2023/05/23 10:13:42;;;;;;;5.70;2.70;;;;;;;24.77;35.11;99185.82;107551;1257;60316;-38
2023/05/23 10:16:13;;;;;;;;;;;;;;;25.09;33.72;99185.60;107579;1257;72379;-38
2023/05/23 10:18:44;;;;;;;3.40;2.70;;;;;;;25.30;32.87;99182.48;107598;1254;67602;-38
2023/05/23 10:21:16;;;;;;;5.70;2.50;;;;;;;25.47;32.92;99186.33;107320;1259;72651;-38
2023/05/23 10:23:46;;;;;;;5.00;2.90;;;;;;;25.64;32.15;99180.25;107554;1252;60432;-38
2023/05/23 10:26:13;;;;;;;3.30;2.70;;;;;;;25.72;31.95;99180.30;107519;1253;60424;-38
2023/05/23 10:28:41;;;;;;;4.80;2.90;;;;;;;25.76;31.17;99177.52;107302;1254;73881;-38
2023/05/23 10:31:09;;;;;;;5.00;2.80;;;;;;;25.73;31.33;99171.20;107294;1258;68038;-38
2023/05/23 10:33:40;;;;;;;6.60;2.70;;;;;;;25.69;31.76;99172.96;107381;1255;71777;-38
2023/05/23 10:36:12;;;;;;;9.40;2.70;;;;;;;25.64;31.97;99174.70;107382;1259;60518;-38
2023/05/23 10:39:11;;;;;;;4.90;2.90;;;;;;;25.60;32.08;99170.50;107593;1254;60371;-38
2023/05/23 10:41:52;;;;;;;3.50;2.70;;;;;;;25.59;32.53;99167.59;107242;1255;73869;-38
2023/05/23 10:44:30;;;;;;;4.30;2.60;;;;;;;25.56;32.84;99167.78;107461;1258;66613;-37
2023/05/23 10:47:01;;;;;;;5.50;2.90;;;;;;;25.51;32.68;99160.49;107391;1258;72488;-38
2023/05/23 10:49:46;;;;;;;4.40;2.80;;;;;;;25.47;33.04;99165.84;107386;1254;60435;-38
2023/05/23 10:52:15;;;;;;;3.40;2.20;;;;;;;25.43;33.54;99165.55;107418;1258;60802;-38
2023/05/23 10:54:44;;;;;;;3.60;2.70;;;;;;;25.38;33.47;99160.96;107407;1254;73829;-38
2023/05/23 10:57:15;;;;;;;4.70;2.70;;;;;;;25.29;33.59;99161.25;107450;1259;66838;-38
2023/05/23 10:59:44;;;;;;;7.20;3.60;;;;;;;25.17;34.34;99162.21;107431;1253;73159;-38
2023/05/23 11:02:17;;;;;;;8.00;2.70;;;;;;;25.05;34.28;99157.41;107423;1258;60429;-38
2023/05/23 11:04:47;;;;;;;7.10;2.90;;;;;;;24.94;34.68;99158.36;107450;1258;60812;-38
2023/05/23 11:07:30;;;;;;;3.90;2.70;;;;;;;24.82;35.39;99163.11;107410;1259;73850;-38
2023/05/23 11:10:09;;;;;;;5.40;3.00;;;;;;;24.81;35.41;99160.62;107406;1258;67584;-38
2023/05/23 11:12:41;;;;;;;5.50;2.90;;;;;;;24.96;34.81;99155.67;107394;1254;72782;-38
2023/05/23 11:15:19;;;;;;;5.50;3.00;;;;;;;25.19;35.04;99149.33;107427;1254;60390;-38
2023/05/23 11:17:54;;;;;;;9.10;2.60;;;;;;;25.66;34.42;99154.61;107407;1254;59149;-38
2023/05/23 11:20:27;;;;;;;5.20;2.60;;;;;;;26.02;34.15;99151.70;107363;1255;74249;-38
2023/05/23 11:23:03;;;;;;;6.90;2.80;;;;;;;26.34;33.26;99153.98;107310;1258;67943;-38
2023/05/23 11:25:41;;;;;;;3.10;2.40;;;;;;;26.59;32.83;99152.02;107344;1254;72665;-38
2023/05/23 11:28:12;;;;;;;6.10;2.90;;;;;;;26.81;33.11;99151.08;107365;1258;60544;-38
2023/05/23 11:30:40;;;;;;;3.70;2.60;;;;;;;26.96;31.51;99146.23;107433;1257;60087;-38
2023/05/23 11:33:15;;;;;;;3.20;2.30;;;;;;;26.91;31.58;99147.64;107538;1254;73943;-38
2023/05/23 11:35:45;;;;;;;5.10;2.80;;;;;;;26.83;31.61;99144.69;107497;1258;67587;-38
2023/05/23 11:38:14;;;;;;;5.10;2.30;;;;;;;26.79;32.30;99146.41;107512;1254;72682;-38
2023/05/23 11:40:44;;;;;;;4.70;2.70;;;;;;;26.77;32.14;99148.59;107504;1258;60544;-38
2023/05/23 11:43:15;;;;;;;4.70;2.30;;;;;;;26.79;32.81;99140.94;107526;1254;60518;-38
2023/05/23 11:45:45;;;;;;;3.40;2.20;;;;;;;26.95;32.42;99138.94;107512;1254;73953;-38